createdAt,value
2022-07-30T00:02:05.634Z,63.06
2022-07-30T00:04:33.483Z,63.24
2022-07-30T00:07:02.041Z,63.22
2022-07-30T00:09:30.713Z,63.28
2022-07-30T00:12:02.217Z,63.28
2022-07-30T00:14:30.772Z,63.19
2022-07-30T00:16:58.829Z,63.14
2022-07-30T00:19:27.474Z,63.25
2022-07-30T00:21:55.247Z,63.38
2022-07-30T00:24:23.699Z,63.34
2022-07-30T00:26:51.654Z,63.49
2022-07-30T00:29:19.577Z,63.50
2022-07-30T00:31:47.343Z,63.63
2022-07-30T00:34:15.110Z,63.66
2022-07-30T00:36:42.917Z,63.74
2022-07-30T00:39:10.624Z,63.89
2022-07-30T00:42:00.255Z,64.19
2022-07-30T00:44:29.917Z,64.36
2022-07-30T00:46:58.830Z,64.45
2022-07-30T00:49:27.268Z,64.55
2022-07-30T00:51:55.287Z,64.74
2022-07-30T00:54:23.202Z,64.70
2022-07-30T00:56:51.224Z,64.70
2022-07-30T00:59:19.065Z,64.80
2022-07-30T01:01:47.569Z,64.92
2022-07-30T01:04:15.318Z,65.19
2022-07-30T01:06:43.079Z,65.39
2022-07-30T01:09:11.071Z,65.68
2022-07-30T01:11:43.025Z,65.79
2022-07-30T01:14:11.237Z,65.95
2022-07-30T01:16:43.205Z,66.08
2022-07-30T01:19:41.198Z,66.29
2022-07-30T01:22:43.662Z,66.51
2022-07-30T01:25:32.303Z,66.79
2022-07-30T01:28:06.712Z,66.94
2022-07-30T01:30:42.703Z,66.91
2022-07-30T01:33:16.950Z,66.86
2022-07-30T01:35:48.339Z,66.99
2022-07-30T01:38:22.901Z,66.99
2022-07-30T01:40:56.137Z,67.15
2022-07-30T01:43:25.838Z,67.14
2022-07-30T01:45:56.542Z,67.27
2022-07-30T01:48:26.808Z,67.45
2022-07-30T01:51:00.727Z,67.51
2022-07-30T01:53:33.917Z,67.47
2022-07-30T01:56:03.434Z,67.60
2022-07-30T01:58:37.459Z,67.68
2022-07-30T02:01:14.408Z,67.87
2022-07-30T02:03:42.392Z,67.90
2022-07-30T02:06:23.274Z,67.94
2022-07-30T02:09:02.949Z,68.10
2022-07-30T02:12:05.938Z,68.30
2022-07-30T02:14:49.393Z,68.54
2022-07-30T02:17:30.166Z,68.77
2022-07-30T02:20:09.588Z,68.85
2022-07-30T02:22:42.587Z,68.93
2022-07-30T02:25:15.499Z,68.97
2022-07-30T02:27:46.535Z,69.03
2022-07-30T02:30:15.440Z,69.15
2022-07-30T02:32:47.111Z,69.20
2022-07-30T02:35:21.203Z,69.22
2022-07-30T02:37:52.655Z,69.41
2022-07-30T02:40:23.072Z,69.62
2022-07-30T02:42:53.721Z,69.78
2022-07-30T02:45:25.724Z,69.86
2022-07-30T02:48:02.598Z,70.09
2022-07-30T02:50:31.970Z,70.35
2022-07-30T02:53:03.311Z,70.32
2022-07-30T02:55:35.566Z,70.38
2022-07-30T02:58:06.953Z,70.44
2022-07-30T03:00:35.708Z,70.63
2022-07-30T03:03:07.530Z,70.90
2022-07-30T03:05:40.509Z,71.09
2022-07-30T03:08:09.665Z,71.24
2022-07-30T03:10:39.677Z,71.44
2022-07-30T03:13:10.443Z,71.64
2022-07-30T03:15:45.899Z,71.58
2022-07-30T03:18:16.778Z,71.94
2022-07-30T03:20:54.594Z,72.13
2022-07-30T03:23:24.211Z,72.21
2022-07-30T03:26:05.791Z,72.26
2022-07-30T03:28:39.487Z,72.19
2022-07-30T03:31:10.425Z,72.06
2022-07-30T03:33:41.853Z,72.17
2022-07-30T03:36:14.470Z,72.44
2022-07-30T03:38:43.998Z,72.60
2022-07-30T03:41:12.899Z,72.75
2022-07-30T03:43:42.211Z,73.08
2022-07-30T03:46:12.100Z,73.32
2022-07-30T03:48:42.526Z,73.62
2022-07-30T03:51:10.854Z,73.77
2022-07-30T03:53:42.190Z,73.67
2022-07-30T03:56:31.269Z,73.63
2022-07-30T03:59:05.928Z,73.75
2022-07-30T04:01:35.050Z,73.80
2022-07-30T04:04:32.142Z,73.93
2022-07-30T04:07:00.337Z,74.10
2022-07-30T04:09:30.027Z,74.14
2022-07-30T04:11:59.094Z,74.27
2022-07-30T04:14:43.990Z,74.27
2022-07-30T04:17:26.496Z,74.19
2022-07-30T04:20:02.871Z,74.22
2022-07-30T04:22:36.069Z,74.25
2022-07-30T04:25:06.912Z,74.20
2022-07-30T04:27:36.604Z,74.20
2022-07-30T04:30:05.433Z,74.20
2022-07-30T04:32:35.089Z,74.25
2022-07-30T04:35:06.474Z,74.28
2022-07-30T04:37:57.390Z,74.29
2022-07-30T04:40:25.145Z,74.18
2022-07-30T04:42:53.060Z,73.91
2022-07-30T04:45:20.881Z,74.13
2022-07-30T04:47:55.267Z,74.27
2022-07-30T04:50:29.241Z,74.29
2022-07-30T04:52:58.587Z,74.28
2022-07-30T04:55:29.096Z,74.24
2022-07-30T04:58:00.575Z,74.16
2022-07-30T05:00:40.476Z,74.02
2022-07-30T05:03:14.096Z,73.90
2022-07-30T05:05:46.838Z,73.90
2022-07-30T05:08:15.245Z,73.96
2022-07-30T05:10:44.831Z,73.94
2022-07-30T05:13:14.731Z,74.03
2022-07-30T05:15:46.781Z,73.92
2022-07-30T05:18:16.843Z,73.81
2022-07-30T05:20:44.812Z,73.79
2022-07-30T05:23:29.854Z,73.71
2022-07-30T05:26:12.870Z,73.48
2022-07-30T05:28:44.223Z,73.45
2022-07-30T05:31:15.463Z,73.15
2022-07-30T05:33:48.064Z,72.88
2022-07-30T05:36:18.551Z,72.77
2022-07-30T05:38:47.894Z,72.56
2022-07-30T05:41:33.006Z,72.35
2022-07-30T05:44:22.251Z,72.10
2022-07-30T05:46:52.417Z,72.08
2022-07-30T05:49:20.455Z,71.77
2022-07-30T05:51:48.289Z,71.34
2022-07-30T05:54:19.414Z,71.70
2022-07-30T05:57:07.475Z,71.46
2022-07-30T05:59:38.659Z,71.22
2022-07-30T06:02:10.625Z,71.20
2022-07-30T06:04:52.536Z,71.03
2022-07-30T06:07:20.682Z,70.89
2022-07-30T06:09:48.854Z,70.72
2022-07-30T06:12:17.235Z,70.65
2022-07-30T06:14:45.007Z,70.49
2022-07-30T06:17:16.615Z,69.96
2022-07-30T06:20:01.125Z,69.82
2022-07-30T06:22:30.489Z,69.45
2022-07-30T06:24:59.314Z,69.13
2022-07-30T06:27:31.625Z,69.13
2022-07-30T06:30:01.380Z,69.06
2022-07-30T06:32:29.303Z,68.90
2022-07-30T06:35:04.033Z,68.96
2022-07-30T06:38:06.144Z,68.84
2022-07-30T06:40:21.860Z,68.84
2022-07-30T06:43:08.227Z,68.61
2022-07-30T06:45:52.118Z,68.56
2022-07-30T06:48:31.751Z,68.12
2022-07-30T06:51:00.762Z,68.10
2022-07-30T06:53:28.679Z,68.33
2022-07-30T06:56:23.625Z,67.84
2022-07-30T06:58:57.569Z,67.27
2022-07-30T07:01:44.141Z,67.13
2022-07-30T07:04:12.672Z,66.81
2022-07-30T07:06:40.660Z,66.32
2022-07-30T07:09:08.929Z,65.88
2022-07-30T07:11:42.561Z,65.32
2022-07-30T07:14:12.814Z,65.14
2022-07-30T07:16:40.862Z,64.73
2022-07-30T07:20:01.017Z,64.58
2022-07-30T07:22:19.654Z,64.03
2022-07-30T07:24:47.651Z,63.35
2022-07-30T07:27:23.933Z,62.85
2022-07-30T07:30:05.545Z,62.59
2022-07-30T07:32:36.422Z,61.57
2022-07-30T07:35:05.622Z,61.15
2022-07-30T07:37:34.658Z,60.77
2022-07-30T07:40:04.517Z,60.20
2022-07-30T07:42:33.849Z,60.13
2022-07-30T07:45:02.354Z,59.93
2022-07-30T07:47:52.972Z,59.45
2022-07-30T07:50:44.694Z,58.81
2022-07-30T07:53:18.842Z,58.88
2022-07-30T07:55:47.146Z,58.98
2022-07-30T07:58:18.182Z,58.77
2022-07-30T08:00:54.936Z,58.45
2022-07-30T08:03:25.371Z,57.77
2022-07-30T08:05:56.939Z,57.73
2022-07-30T08:09:09.205Z,56.98
2022-07-30T08:12:06.295Z,56.56
2022-07-30T08:14:54.636Z,55.77
2022-07-30T08:17:54.693Z,55.22
2022-07-30T08:20:46.272Z,55.42
2022-07-30T08:23:14.194Z,55.09
2022-07-30T08:25:42.113Z,55.14
2022-07-30T08:28:34.161Z,54.56
2022-07-30T08:31:00.546Z,54.52
2022-07-30T08:33:30.361Z,54.45
2022-07-30T08:36:03.952Z,54.55
2022-07-30T08:38:33.356Z,54.42
2022-07-30T08:41:01.334Z,54.67
2022-07-30T08:43:29.719Z,54.48
2022-07-30T08:46:00.756Z,54.15
2022-07-30T08:48:38.099Z,54.20
2022-07-30T08:51:07.083Z,54.27
2022-07-30T08:53:35.714Z,54.09
2022-07-30T08:56:05.235Z,53.71
2022-07-30T08:58:35.377Z,53.68
2022-07-30T09:01:05.511Z,53.62
2022-07-30T09:03:34.678Z,53.78
2022-07-30T09:06:04.921Z,53.47
2022-07-30T09:08:33.865Z,52.81
2022-07-30T09:11:02.126Z,52.92
2022-07-30T09:13:35.158Z,52.75
2022-07-30T09:16:05.249Z,52.51
2022-07-30T09:18:39.970Z,52.50
2022-07-30T09:21:24.529Z,52.13
2022-07-30T09:24:25.904Z,51.54
2022-07-30T09:27:07.469Z,51.79
2022-07-30T09:29:59.988Z,51.38
2022-07-30T09:32:55.982Z,51.07
2022-07-30T09:35:58.968Z,51.44
2022-07-30T09:38:52.835Z,50.97
2022-07-30T09:41:49.815Z,51.24
2022-07-30T09:44:26.061Z,51.57
2022-07-30T09:46:58.344Z,51.53
2022-07-30T09:49:29.304Z,51.31
2022-07-30T09:51:57.754Z,51.06
2022-07-30T09:54:52.584Z,51.10
2022-07-30T09:57:27.584Z,50.87
2022-07-30T10:00:25.503Z,51.37
2022-07-30T10:03:33.723Z,51.54
2022-07-30T10:06:38.193Z,51.03
2022-07-30T10:09:37.229Z,50.51
2022-07-30T10:12:10.492Z,50.54
2022-07-30T10:14:45.653Z,50.41
2022-07-30T10:17:17.320Z,50.49
2022-07-30T10:20:09.460Z,50.89
2022-07-30T10:22:56.028Z,50.24
2022-07-30T10:25:36.779Z,50.75
2022-07-30T10:28:39.621Z,50.21
2022-07-30T10:31:47.419Z,50.02
2022-07-30T10:33:56.499Z,49.64
2022-07-30T10:36:26.285Z,49.28
2022-07-30T10:38:56.254Z,48.84
2022-07-30T10:42:07.741Z,48.84
2022-07-30T10:44:53.082Z,48.21
2022-07-30T10:47:29.331Z,47.93
2022-07-30T10:50:14.027Z,47.16
2022-07-30T10:53:01.164Z,47.12
2022-07-30T10:55:36.853Z,47.13
2022-07-30T10:58:09.176Z,47.04
2022-07-30T11:00:52.841Z,46.64
2022-07-30T11:03:41.731Z,46.20
2022-07-30T11:06:15.713Z,46.82
2022-07-30T11:08:48.215Z,46.86
2022-07-30T11:11:59.542Z,46.90
2022-07-30T11:14:10.022Z,46.89
2022-07-30T11:16:40.585Z,46.39
2022-07-30T11:19:55.906Z,46.18
2022-07-30T11:22:41.121Z,46.77
2022-07-30T11:25:50.164Z,47.21
2022-07-30T11:28:45.558Z,47.89
2022-07-30T11:32:07.422Z,48.54
2022-07-30T11:34:29.753Z,48.98
2022-07-30T11:37:22.294Z,49.37
2022-07-30T11:40:00.641Z,49.52
2022-07-30T11:42:35.410Z,49.47
2022-07-30T11:45:18.878Z,49.18
2022-07-30T11:47:55.335Z,49.41
2022-07-30T11:50:28.422Z,49.50
2022-07-30T11:53:05.711Z,48.99
2022-07-30T11:55:39.129Z,49.10
2022-07-30T11:58:10.715Z,49.24
2022-07-30T12:00:47.968Z,48.69
2022-07-30T12:03:19.218Z,48.38
2022-07-30T12:05:52.645Z,48.44
2022-07-30T12:08:33.338Z,48.92
2022-07-30T12:11:03.965Z,48.46
2022-07-30T12:13:43.415Z,48.43
2022-07-30T12:16:17.506Z,48.67
2022-07-30T12:18:47.550Z,48.49
2022-07-30T12:21:16.286Z,48.63
2022-07-30T12:23:59.139Z,47.76
2022-07-30T12:26:34.044Z,47.44
2022-07-30T12:29:06.645Z,47.49
2022-07-30T12:31:39.730Z,47.42
2022-07-30T12:34:26.716Z,47.70
2022-07-30T12:36:55.573Z,47.34
2022-07-30T12:39:26.818Z,47.09
2022-07-30T12:41:58.460Z,47.00
2022-07-30T12:44:41.001Z,46.70
2022-07-30T12:47:26.457Z,47.40
2022-07-30T12:50:00.721Z,47.31
2022-07-30T12:52:33.706Z,46.54
2022-07-30T12:55:10.000Z,46.42
2022-07-30T12:58:07.030Z,46.26
2022-07-30T13:00:43.962Z,46.51
2022-07-30T13:03:39.021Z,45.43
2022-07-30T13:06:25.542Z,46.12
2022-07-30T13:08:58.202Z,45.58
2022-07-30T13:11:41.350Z,45.69
2022-07-30T13:14:12.480Z,44.88
2022-07-30T13:16:40.482Z,45.06
2022-07-30T13:19:13.665Z,45.77
2022-07-30T13:21:50.098Z,45.50
2022-07-30T13:24:19.488Z,44.70
2022-07-30T13:26:50.604Z,44.85
2022-07-30T13:29:19.256Z,44.45
2022-07-30T13:31:47.329Z,44.57
2022-07-30T13:34:15.072Z,44.47
2022-07-30T13:36:43.011Z,44.36
2022-07-30T13:39:12.024Z,44.91
2022-07-30T13:41:41.740Z,45.40
2022-07-30T13:44:09.910Z,45.21
2022-07-30T13:46:40.562Z,45.09
2022-07-30T13:49:10.874Z,45.46
2022-07-30T13:51:39.060Z,46.10
2022-07-30T13:54:07.582Z,46.36
2022-07-30T13:56:40.861Z,47.01
2022-07-30T13:59:09.717Z,47.65
2022-07-30T14:01:38.318Z,47.76
2022-07-30T14:04:06.145Z,48.00
2022-07-30T14:06:33.978Z,48.70
2022-07-30T14:09:01.701Z,48.43
2022-07-30T14:11:29.610Z,48.60
2022-07-30T14:13:57.436Z,49.11
2022-07-30T14:16:44.237Z,49.16
2022-07-30T14:19:23.072Z,49.85
2022-07-30T14:21:53.900Z,49.80
2022-07-30T14:24:22.912Z,50.16
2022-07-30T14:26:55.825Z,50.65
2022-07-30T14:29:27.898Z,50.94
2022-07-30T14:31:56.366Z,50.83
2022-07-30T14:34:24.179Z,51.01
2022-07-30T14:36:51.883Z,51.18
2022-07-30T14:39:20.532Z,51.22
2022-07-30T14:41:48.355Z,51.69
2022-07-30T14:44:20.218Z,51.93
2022-07-30T14:47:01.996Z,51.92
2022-07-30T14:49:29.923Z,51.89
2022-07-30T14:51:57.785Z,52.05
2022-07-30T14:54:25.646Z,52.22
2022-07-30T14:56:58.271Z,52.24
2022-07-30T14:59:27.899Z,52.21
2022-07-30T15:01:56.621Z,52.20
2022-07-30T15:04:24.489Z,52.28
2022-07-30T15:06:52.182Z,52.24
2022-07-30T15:09:20.164Z,52.12
2022-07-30T15:12:09.378Z,52.16
2022-07-30T15:14:39.953Z,52.18
2022-07-30T15:17:08.764Z,52.43
2022-07-30T15:19:36.509Z,52.37
2022-07-30T15:22:05.502Z,52.57
2022-07-30T15:24:33.590Z,52.87
2022-07-30T15:27:01.481Z,52.90
2022-07-30T15:29:30.136Z,52.91
2022-07-30T15:32:00.618Z,52.49
2022-07-30T15:34:33.985Z,52.40
2022-07-30T15:37:03.630Z,52.24
2022-07-30T15:39:34.237Z,51.95
2022-07-30T15:42:05.768Z,51.70
2022-07-30T15:44:34.882Z,51.40
2022-07-30T15:47:02.965Z,50.99
2022-07-30T15:49:30.781Z,50.67
2022-07-30T15:52:00.691Z,49.96
2022-07-30T15:54:28.837Z,50.20
2022-07-30T15:57:00.958Z,50.13
2022-07-30T15:59:30.663Z,49.89
2022-07-30T16:01:58.854Z,50.39
2022-07-30T16:04:31.784Z,50.78
2022-07-30T16:07:04.412Z,50.80
2022-07-30T16:09:32.341Z,50.99
2022-07-30T16:12:00.316Z,51.37
2022-07-30T16:14:29.027Z,51.57
2022-07-30T16:16:56.757Z,51.68
2022-07-30T16:19:24.541Z,51.29
2022-07-30T16:21:52.743Z,51.31
2022-07-30T16:24:20.745Z,51.43
2022-07-30T16:26:48.675Z,51.12
